createdAt,value
2018-04-30T00:01:36.080Z,94216.75
2018-04-30T00:04:04.408Z,94210.58
2018-04-30T00:06:32.726Z,94204.30
2018-04-30T00:09:01.208Z,94209.33
2018-04-30T00:11:29.731Z,94209.58
2018-04-30T00:13:58.112Z,94198.36
2018-04-30T00:16:26.408Z,94201.45
2018-04-30T00:18:54.727Z,94200.34
2018-04-30T00:21:23.045Z,94205.20
2018-04-30T00:23:51.361Z,94205.03
2018-04-30T00:26:19.653Z,94199.09
2018-04-30T00:28:48.029Z,94202.53
2018-04-30T00:31:16.353Z,94197.89
2018-04-30T00:33:44.661Z,94195.14
2018-04-30T00:36:12.972Z,94192.27
2018-04-30T00:38:41.340Z,94196.45
2018-04-30T00:41:09.662Z,94200.19
2018-04-30T00:43:37.982Z,94201.81
2018-04-30T00:46:06.295Z,94191.62
2018-04-30T00:48:34.601Z,94196.48
2018-04-30T00:51:02.922Z,94200.39
2018-04-30T00:53:31.242Z,94193.53
2018-04-30T00:55:59.581Z,94192.44
2018-04-30T00:58:27.907Z,94187.52
2018-04-30T01:00:56.213Z,94184.03
2018-04-30T01:03:24.628Z,94183.80
2018-04-30T01:05:52.942Z,94183.48
2018-04-30T01:08:21.252Z,94185.56
2018-04-30T01:10:49.553Z,94186.16
2018-04-30T01:13:17.963Z,94176.94
2018-04-30T01:15:46.265Z,94172.92
2018-04-30T01:18:14.572Z,94175.14
2018-04-30T01:20:42.920Z,94172.01
2018-04-30T01:23:11.228Z,94168.38
2018-04-30T01:25:39.533Z,94173.50
2018-04-30T01:28:07.886Z,94170.73
2018-04-30T01:30:36.202Z,94177.44
2018-04-30T01:33:04.522Z,94171.19
2018-04-30T01:35:32.912Z,94180.18
2018-04-30T01:38:01.285Z,94182.62
2018-04-30T01:40:29.719Z,94175.94
2018-04-30T01:42:58.951Z,94171.41
2018-04-30T01:45:27.273Z,94161.78
2018-04-30T01:47:55.585Z,94166.67
2018-04-30T01:50:24.001Z,94174.73
2018-04-30T01:52:52.380Z,94162.64
2018-04-30T01:55:20.701Z,94170.09
2018-04-30T01:57:49.035Z,94169.16
2018-04-30T02:00:17.354Z,94160.39
2018-04-30T02:02:45.662Z,94164.89
2018-04-30T02:05:13.994Z,94166.08
2018-04-30T02:07:42.452Z,94168.50
2018-04-30T02:10:10.766Z,94171.28
2018-04-30T02:12:39.094Z,94166.59
2018-04-30T02:15:07.406Z,94160.66
2018-04-30T02:17:35.720Z,94163.09
2018-04-30T02:20:04.050Z,94149.45
2018-04-30T02:22:32.363Z,94159.22
2018-04-30T02:25:00.676Z,94156.41
2018-04-30T02:27:29.015Z,94143.52
2018-04-30T02:29:57.344Z,94141.94
2018-04-30T02:32:25.708Z,94153.85
2018-04-30T02:34:54.096Z,94154.03
2018-04-30T02:37:22.473Z,94160.42
2018-04-30T02:39:50.862Z,94163.58
2018-04-30T02:42:19.242Z,94166.34
2018-04-30T02:44:47.556Z,94166.22
2018-04-30T02:47:15.899Z,94159.78
2018-04-30T02:49:44.275Z,94165.75
2018-04-30T02:52:12.598Z,94173.38
2018-04-30T02:54:40.930Z,94181.60
2018-04-30T02:57:09.252Z,94190.12
2018-04-30T02:59:37.565Z,94187.94
2018-04-30T03:02:05.952Z,94195.59
2018-04-30T03:04:34.333Z,94200.97
2018-04-30T03:07:02.752Z,94229.19
2018-04-30T03:09:31.090Z,94284.56
2018-04-30T03:11:59.422Z,94279.77
2018-04-30T03:14:27.720Z,94280.37
2018-04-30T03:16:56.102Z,94268.01
2018-04-30T03:19:24.516Z,94281.12
2018-04-30T03:21:52.878Z,94293.44
2018-04-30T03:24:21.257Z,94310.94
2018-04-30T03:26:49.637Z,94324.00
2018-04-30T03:29:18.022Z,94335.33
2018-04-30T03:31:46.393Z,94370.02
2018-04-30T03:34:14.801Z,94363.97
2018-04-30T03:36:43.145Z,94368.05
2018-04-30T03:39:11.466Z,94378.38
2018-04-30T03:41:39.809Z,94377.14
2018-04-30T03:44:08.128Z,94396.03
2018-04-30T03:46:36.549Z,94412.78
2018-04-30T03:49:04.874Z,94429.87
2018-04-30T03:51:33.211Z,94440.45
2018-04-30T03:54:01.528Z,94441.34
2018-04-30T03:56:29.854Z,94457.97
2018-04-30T03:58:58.195Z,94469.40
2018-04-30T04:01:38.439Z,94489.79
2018-04-30T04:04:19.461Z,94497.30
2018-04-30T04:06:52.785Z,94507.06
2018-04-30T04:09:21.139Z,94525.90
2018-04-30T04:11:49.457Z,94514.36
2018-04-30T04:14:17.789Z,94520.42
2018-04-30T04:16:46.101Z,94528.69
2018-04-30T04:19:14.494Z,94536.28
2018-04-30T04:21:42.808Z,94541.05
2018-04-30T04:24:11.119Z,94555.85
2018-04-30T04:26:39.412Z,94587.70
2018-04-30T04:29:07.737Z,94619.18
2018-04-30T04:31:36.136Z,94652.87
2018-04-30T04:34:04.453Z,94661.31
2018-04-30T04:36:32.792Z,94664.19
2018-04-30T04:39:01.172Z,94651.69
2018-04-30T04:41:29.548Z,94664.41
2018-04-30T04:43:57.932Z,94690.41
2018-04-30T04:46:26.324Z,94697.61
2018-04-30T04:48:54.627Z,94704.43
2018-04-30T04:51:22.957Z,94713.80
2018-04-30T04:53:51.353Z,94726.50
2018-04-30T04:56:19.663Z,94750.88
2018-04-30T04:58:47.995Z,94738.03
2018-04-30T05:01:16.303Z,94739.96
2018-04-30T05:03:44.613Z,94753.17
2018-04-30T05:06:13.023Z,94765.45
2018-04-30T05:08:41.336Z,94772.88
2018-04-30T05:11:09.657Z,94779.48
2018-04-30T05:13:38.066Z,94796.95
2018-04-30T05:16:06.446Z,94820.24
2018-04-30T05:18:34.756Z,94816.28
2018-04-30T05:21:03.070Z,94825.19
2018-04-30T05:23:31.414Z,94844.86
2018-04-30T05:25:59.719Z,94826.88
2018-04-30T05:28:28.132Z,94838.48
2018-04-30T05:30:56.451Z,94855.68
2018-04-30T05:33:24.761Z,94860.95
2018-04-30T05:35:53.177Z,94856.70
2018-04-30T05:38:21.485Z,94868.03
2018-04-30T05:40:49.855Z,94865.46
2018-04-30T05:43:18.172Z,94889.31
2018-04-30T05:45:46.485Z,94876.00
2018-04-30T05:48:14.801Z,94895.38
2018-04-30T05:50:43.118Z,94905.98
2018-04-30T05:53:11.481Z,94887.61
2018-04-30T05:55:39.878Z,94889.92
2018-04-30T05:58:08.208Z,94889.27
2018-04-30T06:00:36.539Z,94898.37
2018-04-30T06:03:04.849Z,94892.03
2018-04-30T06:05:33.164Z,94890.11
2018-04-30T06:08:01.472Z,94899.36
2018-04-30T06:10:29.792Z,94891.32
2018-04-30T06:12:58.224Z,94905.98
2018-04-30T06:15:26.606Z,94904.98
2018-04-30T06:17:54.905Z,94898.36
2018-04-30T06:20:23.239Z,94909.27
2018-04-30T06:22:51.633Z,94889.04
2018-04-30T06:25:20.013Z,94902.98
2018-04-30T06:27:48.333Z,94899.75
2018-04-30T06:30:16.707Z,94914.50
2018-04-30T06:32:45.013Z,94923.80
2018-04-30T06:35:13.465Z,94945.69
2018-04-30T06:37:41.770Z,94940.83
2018-04-30T06:40:10.093Z,94947.55
2018-04-30T06:42:38.404Z,94936.65
2018-04-30T06:45:06.733Z,94940.30
2018-04-30T06:47:35.109Z,94950.86
2018-04-30T06:50:03.383Z,94939.07
2018-04-30T06:52:32.727Z,94936.29
2018-04-30T06:55:01.033Z,94954.55
2018-04-30T06:57:29.436Z,94945.20
2018-04-30T06:59:57.747Z,94931.69
2018-04-30T07:02:26.054Z,94948.95
2018-04-30T07:04:54.370Z,94956.80
2018-04-30T07:07:22.673Z,94949.45
2018-04-30T07:09:51.018Z,94940.27
2018-04-30T07:12:19.345Z,94932.58
2018-04-30T07:14:47.669Z,94936.03
2018-04-30T07:17:15.997Z,94937.05
2018-04-30T07:19:44.376Z,94932.47
2018-04-30T07:22:12.717Z,94938.08
2018-04-30T07:24:41.026Z,94940.05
2018-04-30T07:27:09.369Z,94934.77
2018-04-30T07:29:37.786Z,94929.27
2018-04-30T07:32:06.085Z,94930.77
2018-04-30T07:34:34.418Z,94924.46
2018-04-30T07:37:02.738Z,94922.77
2018-04-30T07:39:31.042Z,94911.20
2018-04-30T07:41:59.358Z,94899.81
2018-04-30T07:44:27.752Z,94902.59
2018-04-30T07:46:56.129Z,94900.72
2018-04-30T07:49:24.432Z,94903.25
2018-04-30T07:51:52.849Z,94911.02
2018-04-30T07:54:21.173Z,94912.14
2018-04-30T07:56:49.513Z,94905.28
2018-04-30T07:59:17.873Z,94906.73
2018-04-30T08:01:46.218Z,94903.13
2018-04-30T08:04:14.636Z,94903.86
2018-04-30T08:06:42.978Z,94903.22
2018-04-30T08:09:11.377Z,94908.34
2018-04-30T08:11:39.663Z,94914.09
2018-04-30T08:14:07.968Z,94918.41
2018-04-30T08:16:36.322Z,94906.56
2018-04-30T08:19:04.645Z,94904.21
2018-04-30T08:21:33.064Z,94901.67
2018-04-30T08:24:01.357Z,94901.25
2018-04-30T08:26:29.673Z,94903.31
2018-04-30T08:28:57.985Z,94908.82
2018-04-30T08:31:26.381Z,94915.42
2018-04-30T08:33:54.714Z,94917.05
2018-04-30T08:36:23.049Z,94923.59
2018-04-30T08:38:51.358Z,94913.35
2018-04-30T08:41:19.700Z,94925.55
2018-04-30T08:43:48.025Z,94920.83
2018-04-30T08:46:16.335Z,94917.64
2018-04-30T08:48:44.657Z,94919.16
2018-04-30T08:51:12.968Z,94925.98
2018-04-30T08:53:41.272Z,94920.13
2018-04-30T08:56:09.591Z,94914.16
2018-04-30T08:58:37.904Z,94912.22
2018-04-30T09:01:06.218Z,94914.25
2018-04-30T09:03:34.545Z,94926.68
2018-04-30T09:06:02.907Z,94915.41
2018-04-30T09:08:31.225Z,94912.59
2018-04-30T09:10:59.629Z,94916.98
2018-04-30T09:13:28.557Z,94917.37
2018-04-30T09:15:56.902Z,94915.34
2018-04-30T09:18:25.232Z,94910.43
2018-04-30T09:20:53.641Z,94914.44
2018-04-30T09:23:21.967Z,94919.38
2018-04-30T09:25:50.272Z,94909.02
2018-04-30T09:28:18.782Z,94906.10
2018-04-30T09:30:47.173Z,94902.49
2018-04-30T09:33:15.582Z,94906.91
2018-04-30T09:35:43.920Z,94916.02
2018-04-30T09:38:12.293Z,94915.00
2018-04-30T09:40:40.673Z,94907.36
2018-04-30T09:43:08.988Z,94914.21
2018-04-30T09:45:37.290Z,94909.92
2018-04-30T09:48:05.714Z,94915.61
2018-04-30T09:50:33.997Z,94912.02
2018-04-30T09:53:02.313Z,94910.03
2018-04-30T09:55:30.744Z,94914.07
2018-04-30T09:57:59.110Z,94912.98
2018-04-30T10:00:27.388Z,94902.13
2018-04-30T10:02:55.717Z,94908.70
2018-04-30T10:05:24.033Z,94907.23
2018-04-30T10:07:52.388Z,94910.21
2018-04-30T10:10:20.720Z,94904.11
2018-04-30T10:12:49.022Z,94906.06
2018-04-30T10:15:17.339Z,94910.53
2018-04-30T10:17:45.747Z,94907.08
2018-04-30T10:20:14.019Z,94906.97
2018-04-30T10:22:42.389Z,94901.18
2018-04-30T10:25:10.701Z,94896.20
2018-04-30T10:27:39.038Z,94884.88
2018-04-30T10:30:07.413Z,94885.90
2018-04-30T10:32:35.893Z,94901.75
2018-04-30T10:35:04.214Z,94910.28
2018-04-30T10:37:33.115Z,94896.86
2018-04-30T10:40:01.525Z,94884.52
2018-04-30T10:42:29.848Z,94891.02
2018-04-30T10:44:58.244Z,94888.59
2018-04-30T10:47:27.078Z,94879.25
2018-04-30T10:49:55.468Z,94884.72
2018-04-30T10:52:23.873Z,94867.90
2018-04-30T10:54:52.467Z,94877.59
2018-04-30T10:57:21.366Z,94869.95
2018-04-30T10:59:49.702Z,94867.81
2018-04-30T11:02:18.076Z,94877.67
2018-04-30T11:04:46.394Z,94871.95
2018-04-30T11:07:14.740Z,94862.55
2018-04-30T11:09:43.044Z,94870.17
2018-04-30T11:12:11.381Z,94864.17
2018-04-30T11:14:39.697Z,94863.48
2018-04-30T11:17:08.022Z,94872.84
2018-04-30T11:19:36.337Z,94867.02
2018-04-30T11:22:04.653Z,94865.69
2018-04-30T11:24:32.989Z,94868.66
2018-04-30T11:27:01.302Z,94870.47
2018-04-30T11:29:29.617Z,94862.12
2018-04-30T11:31:57.951Z,94858.02
2018-04-30T11:34:26.348Z,94860.35
2018-04-30T11:36:54.587Z,94869.24
2018-04-30T11:39:22.924Z,94860.18
2018-04-30T11:41:51.260Z,94857.36
2018-04-30T11:44:19.634Z,94862.28
2018-04-30T11:46:47.961Z,94870.48
2018-04-30T11:49:16.278Z,94862.64
2018-04-30T11:51:45.540Z,94864.91
2018-04-30T11:54:13.966Z,94859.27
2018-04-30T11:56:42.282Z,94862.15
2018-04-30T11:59:10.601Z,94861.90
2018-04-30T12:01:38.920Z,94862.17
2018-04-30T12:04:07.334Z,94869.56
2018-04-30T12:06:35.715Z,94870.94
2018-04-30T12:09:04.091Z,94876.77
2018-04-30T12:11:32.475Z,94886.70
2018-04-30T12:14:00.857Z,94885.66
2018-04-30T12:16:29.243Z,94882.64
2018-04-30T12:18:57.641Z,94885.56
2018-04-30T12:21:25.981Z,94874.83
2018-04-30T12:23:54.318Z,94864.86
2018-04-30T12:26:22.737Z,94865.59
2018-04-30T12:28:51.052Z,94856.00
2018-04-30T12:31:19.369Z,94855.63
2018-04-30T12:33:47.712Z,94852.74
2018-04-30T12:36:16.090Z,94850.01
2018-04-30T12:38:44.424Z,94855.27
2018-04-30T12:41:12.733Z,94849.80
2018-04-30T12:43:41.083Z,94847.66
2018-04-30T12:46:09.459Z,94843.66
2018-04-30T12:48:37.770Z,94845.66
2018-04-30T12:51:06.118Z,94846.77
2018-04-30T12:53:34.449Z,94840.13
2018-04-30T12:56:02.828Z,94833.87
2018-04-30T12:58:31.065Z,94836.00
2018-04-30T13:00:59.424Z,94832.02
2018-04-30T13:03:27.802Z,94841.48
2018-04-30T13:05:56.110Z,94827.00
2018-04-30T13:08:24.426Z,94829.91
2018-04-30T13:10:52.737Z,94818.08
2018-04-30T13:13:21.049Z,94816.79
2018-04-30T13:15:49.381Z,94824.73
2018-04-30T13:18:17.757Z,94810.23
2018-04-30T13:20:46.063Z,94804.73
2018-04-30T13:23:14.389Z,94800.63
2018-04-30T13:25:42.796Z,94808.39
2018-04-30T13:28:11.120Z,94807.76
2018-04-30T13:30:39.548Z,94806.00
2018-04-30T13:33:07.930Z,94803.94
2018-04-30T13:35:36.236Z,94797.23
2018-04-30T13:38:04.559Z,94799.35
2018-04-30T13:40:32.886Z,94794.73
2018-04-30T13:43:01.186Z,94789.87
2018-04-30T13:45:29.518Z,94792.81
2018-04-30T13:47:57.842Z,94791.58
2018-04-30T13:50:26.170Z,94792.09
2018-04-30T13:52:54.473Z,94788.47
2018-04-30T13:55:22.833Z,94785.50
2018-04-30T13:57:51.141Z,94787.66
2018-04-30T14:00:19.480Z,94781.38
2018-04-30T14:02:47.853Z,94785.11
2018-04-30T14:05:16.164Z,94786.55
2018-04-30T14:07:44.635Z,94784.91
2018-04-30T14:10:12.992Z,94780.52
2018-04-30T14:12:41.312Z,94789.89
2018-04-30T14:15:09.628Z,94788.09
2018-04-30T14:17:37.944Z,94778.02
2018-04-30T14:20:06.252Z,94782.44
2018-04-30T14:22:34.565Z,94788.81
2018-04-30T14:25:02.870Z,94787.58
2018-04-30T14:27:31.181Z,94785.80
2018-04-30T14:29:59.501Z,94782.08
2018-04-30T14:32:27.815Z,94785.63
2018-04-30T14:34:56.156Z,94790.53
2018-04-30T14:37:24.469Z,94781.13
2018-04-30T14:39:52.776Z,94781.53
2018-04-30T14:42:21.089Z,94777.59
2018-04-30T14:44:49.480Z,94776.95
2018-04-30T14:47:17.782Z,94777.12
2018-04-30T14:49:46.084Z,94779.31
2018-04-30T14:52:14.423Z,94775.77
2018-04-30T14:54:42.774Z,94783.61
2018-04-30T14:57:11.093Z,94779.23
2018-04-30T14:59:39.477Z,94780.15
2018-04-30T15:02:07.801Z,94782.63
2018-04-30T15:04:36.109Z,94778.78
2018-04-30T15:07:04.505Z,94776.36
2018-04-30T15:09:32.757Z,94769.13
2018-04-30T15:12:01.120Z,94764.37
2018-04-30T15:14:29.441Z,94769.64
2018-04-30T15:16:57.772Z,94773.74
2018-04-30T15:19:26.128Z,94762.34
2018-04-30T15:21:54.420Z,94765.16
2018-04-30T15:24:22.733Z,94765.34
2018-04-30T15:26:51.088Z,94767.70
2018-04-30T15:29:19.405Z,94769.96
2018-04-30T15:31:47.718Z,94764.27
2018-04-30T15:34:16.104Z,94757.22
2018-04-30T15:36:44.428Z,94773.97
2018-04-30T15:39:12.782Z,94767.94
2018-04-30T15:41:41.173Z,94774.25
2018-04-30T15:44:09.512Z,94771.87
2018-04-30T15:46:37.826Z,94775.15
2018-04-30T15:49:06.172Z,94776.52
2018-04-30T15:51:34.502Z,94774.34
2018-04-30T15:54:02.840Z,94777.50
2018-04-30T15:56:31.160Z,94780.36
2018-04-30T15:58:59.472Z,94776.14
2018-04-30T16:01:27.839Z,94771.80
2018-04-30T16:03:56.136Z,94775.62
2018-04-30T16:06:24.467Z,94774.92
2018-04-30T16:08:52.840Z,94772.67
2018-04-30T16:11:21.144Z,94773.69
2018-04-30T16:13:49.519Z,94769.58
2018-04-30T16:16:17.836Z,94777.40
2018-04-30T16:18:46.249Z,94778.14
2018-04-30T16:21:14.557Z,94786.23
2018-04-30T16:23:42.904Z,94790.45
2018-04-30T16:26:11.200Z,94794.36
2018-04-30T16:28:39.613Z,94790.14
2018-04-30T16:31:07.940Z,94795.90
2018-04-30T16:33:36.245Z,94792.14
2018-04-30T16:36:04.567Z,94785.86
2018-04-30T16:38:32.925Z,94794.45
2018-04-30T16:41:01.307Z,94789.72
2018-04-30T16:43:29.624Z,94788.80
2018-04-30T16:45:58.000Z,94786.40
2018-04-30T16:48:26.336Z,94785.55
2018-04-30T16:50:54.712Z,94787.77
2018-04-30T16:53:23.092Z,94787.50
2018-04-30T16:55:51.516Z,94792.95
2018-04-30T16:58:19.826Z,94798.41
2018-04-30T17:00:48.142Z,94798.77
2018-04-30T17:03:16.517Z,94799.30
2018-04-30T17:05:44.835Z,94798.20
2018-04-30T17:08:13.138Z,94798.45
2018-04-30T17:10:41.538Z,94794.86
2018-04-30T17:13:09.863Z,94792.48
2018-04-30T17:15:38.185Z,94790.38
2018-04-30T17:18:06.505Z,94802.25
2018-04-30T17:20:35.808Z,94804.30
2018-04-30T17:23:04.195Z,94803.73
2018-04-30T17:25:32.482Z,94812.47
2018-04-30T17:28:00.852Z,94815.66
2018-04-30T17:30:29.212Z,94810.81
2018-04-30T17:32:57.556Z,94810.89
2018-04-30T17:35:25.929Z,94812.70
2018-04-30T17:37:54.269Z,94820.43
2018-04-30T17:40:22.576Z,94823.27
2018-04-30T17:42:51.060Z,94826.69
2018-04-30T17:45:19.366Z,94825.03
2018-04-30T17:47:47.698Z,94826.33
2018-04-30T17:50:16.104Z,94828.92
2018-04-30T17:52:44.441Z,94831.86
2018-04-30T17:55:12.857Z,94843.30
2018-04-30T17:57:41.281Z,94844.69
2018-04-30T18:00:09.615Z,94852.20
2018-04-30T18:02:38.035Z,94862.33
2018-04-30T18:05:06.413Z,94858.38
2018-04-30T18:07:34.806Z,94860.30
2018-04-30T18:10:03.124Z,94867.88
2018-04-30T18:12:31.497Z,94872.41
2018-04-30T18:14:59.878Z,94881.50
2018-04-30T18:17:28.261Z,94893.59
2018-04-30T18:19:56.613Z,94895.02
2018-04-30T18:22:24.928Z,94900.47
2018-04-30T18:24:53.266Z,94907.35
2018-04-30T18:27:21.612Z,94912.50
2018-04-30T18:29:49.943Z,94931.87
2018-04-30T18:32:18.338Z,94937.09
2018-04-30T18:34:46.709Z,94952.08
2018-04-30T18:37:15.089Z,94970.41
2018-04-30T18:39:43.409Z,94973.99
2018-04-30T18:42:11.729Z,94991.89
2018-04-30T18:44:40.065Z,94994.02
2018-04-30T18:47:08.393Z,94990.06
2018-04-30T18:49:36.811Z,95007.46
2018-04-30T18:52:05.154Z,95004.58
2018-04-30T18:54:33.536Z,95003.69
2018-04-30T18:57:01.980Z,95001.50
2018-04-30T18:59:30.364Z,95006.17
2018-04-30T19:01:58.766Z,95018.16
2018-04-30T19:04:27.078Z,95028.09
2018-04-30T19:06:55.516Z,95041.61
2018-04-30T19:09:23.901Z,95052.06
2018-04-30T19:11:52.229Z,95056.05
2018-04-30T19:14:20.551Z,95051.88
2018-04-30T19:16:48.873Z,95057.95
2018-04-30T19:19:17.225Z,95068.84
2018-04-30T19:21:45.572Z,95065.66
2018-04-30T19:24:13.974Z,95065.73
2018-04-30T19:26:42.323Z,95059.67
2018-04-30T19:29:10.633Z,95064.59
2018-04-30T19:31:39.001Z,95060.88
2018-04-30T19:34:08.021Z,95064.28
2018-04-30T19:36:36.337Z,95061.49
2018-04-30T19:39:05.409Z,95069.44
2018-04-30T19:41:33.705Z,95074.06
2018-04-30T19:44:02.047Z,95065.95
2018-04-30T19:46:30.405Z,95067.89
2018-04-30T19:48:58.745Z,95075.70
2018-04-30T19:51:27.151Z,95088.48
2018-04-30T19:53:55.529Z,95100.39
2018-04-30T19:56:23.915Z,95110.95
2018-04-30T19:58:52.237Z,95106.09
2018-04-30T20:01:20.557Z,95110.67
2018-04-30T20:03:48.890Z,95113.59
2018-04-30T20:06:17.205Z,95115.69
2018-04-30T20:08:45.611Z,95109.78
2018-04-30T20:11:13.858Z,95109.72
2018-04-30T20:13:42.203Z,95114.30
2018-04-30T20:16:10.509Z,95116.11
2018-04-30T20:18:38.897Z,95127.31
2018-04-30T20:21:07.234Z,95121.47
2018-04-30T20:23:35.540Z,95122.39
2018-04-30T20:26:03.920Z,95114.52
2018-04-30T20:28:32.312Z,95120.69
2018-04-30T20:31:00.700Z,95123.13
2018-04-30T20:33:29.064Z,95130.95
2018-04-30T20:35:57.458Z,95134.44
2018-04-30T20:38:25.752Z,95138.11
2018-04-30T20:40:54.106Z,95142.18
2018-04-30T20:43:22.425Z,95138.60
2018-04-30T20:45:50.768Z,95142.25
2018-04-30T20:48:19.151Z,95140.52
2018-04-30T20:50:47.473Z,95146.00
2018-04-30T20:53:15.784Z,95143.95
2018-04-30T20:55:44.193Z,95147.57
2018-04-30T20:58:12.567Z,95151.19
2018-04-30T21:00:40.934Z,95148.18
2018-04-30T21:03:09.253Z,95153.89
2018-04-30T21:05:37.592Z,95155.44
2018-04-30T21:08:05.888Z,95152.97
2018-04-30T21:10:34.232Z,95147.55
2018-04-30T21:13:02.544Z,95144.20
2018-04-30T21:15:30.880Z,95147.54
2018-04-30T21:17:59.270Z,95147.36
2018-04-30T21:20:27.622Z,95143.73
2018-04-30T21:22:56.026Z,95145.23
2018-04-30T21:25:24.341Z,95148.98
2018-04-30T21:27:52.678Z,95146.97
2018-04-30T21:30:21.065Z,95144.66
2018-04-30T21:32:49.399Z,95149.44
2018-04-30T21:35:17.705Z,95155.41
2018-04-30T21:37:46.041Z,95167.13
2018-04-30T21:40:15.388Z,95169.66
2018-04-30T21:42:43.761Z,95171.91
2018-04-30T21:45:12.078Z,95165.16
2018-04-30T21:47:40.429Z,95172.27
2018-04-30T21:50:08.748Z,95175.72
2018-04-30T21:52:37.182Z,95174.20
2018-04-30T21:55:05.493Z,95167.63
2018-04-30T21:57:33.944Z,95169.09
2018-04-30T22:00:02.321Z,95164.53
2018-04-30T22:02:30.637Z,95174.48
2018-04-30T22:04:58.960Z,95172.14
2018-04-30T22:07:27.357Z,95178.31
2018-04-30T22:09:55.661Z,95178.16
2018-04-30T22:12:23.993Z,95178.47
2018-04-30T22:14:52.309Z,95184.09
2018-04-30T22:17:20.665Z,95180.47
2018-04-30T22:19:49.028Z,95190.12
2018-04-30T22:22:17.380Z,95192.37
2018-04-30T22:24:45.697Z,95197.08
2018-04-30T22:27:14.014Z,95195.11
2018-04-30T22:29:42.342Z,95196.01
2018-04-30T22:32:10.720Z,95198.80
2018-04-30T22:34:39.061Z,95196.36
2018-04-30T22:37:07.366Z,95194.58
2018-04-30T22:39:35.757Z,95208.80
2018-04-30T22:42:04.137Z,95222.43
2018-04-30T22:44:32.517Z,95223.80
2018-04-30T22:47:00.837Z,95224.55
2018-04-30T22:49:29.169Z,95223.80
2018-04-30T22:51:57.489Z,95223.05
2018-04-30T22:54:25.832Z,95233.78
2018-04-30T22:56:54.145Z,95232.44
2018-04-30T22:59:22.586Z,95236.05
2018-04-30T23:01:50.964Z,95237.41
2018-04-30T23:04:19.304Z,95238.32
2018-04-30T23:06:47.628Z,95241.65
2018-04-30T23:09:15.988Z,95243.22
2018-04-30T23:11:44.370Z,95247.40
2018-04-30T23:14:12.793Z,95251.17
2018-04-30T23:16:41.105Z,95254.67
2018-04-30T23:19:09.504Z,95252.95
2018-04-30T23:21:37.877Z,95253.17
2018-04-30T23:24:06.253Z,95251.41
2018-04-30T23:26:34.573Z,95251.92
2018-04-30T23:29:02.913Z,95253.28
2018-04-30T23:31:31.289Z,95253.14
2018-04-30T23:33:59.664Z,95257.94
2018-04-30T23:36:28.048Z,95253.06
2018-04-30T23:38:56.417Z,95251.32
2018-04-30T23:41:24.784Z,95248.52
2018-04-30T23:43:53.092Z,95253.64
2018-04-30T23:46:21.457Z,95251.14
2018-04-30T23:48:49.770Z,95246.27
2018-04-30T23:51:18.139Z,95247.27
2018-04-30T23:53:46.449Z,95240.55
2018-04-30T23:56:14.797Z,95238.33
2018-04-30T23:58:43.109Z,95241.97
